Etusivu
METAR-TAF:

METAR-TAF

Lentoasemat :

Uppsala, Ruotsi

Leveyspiiri: 59-53N, Pituuspiiri: 017-36E, korkeus merenpinnasta: 21 m

METAR: puuttuu

Aika: 18:59 (17:59 UTC)

Sääennuste

Tämä raportti tehtiin 6 tuntia ja 29 minuuttia sitten, kello 11.30 UTC
Ennuste voimassa 19. päivästä klo 12 UTC - 19. päivään klo 15 UTC
Tuuli 9 kn idästä/koillisesta
Näkyvyys 10 km tai enemmän
Hajonneita pilviä 4000 ft:n korkeudessa
Ajoittain
19. päivästä klo 12 UTC - 19. päivään klo 15 UTC
Näkyvyys: 4000 m
Hajonneita pilviä 1200 ft:n korkeudessa
lumikuuroja

TAF: ESCM 191130Z 1912/1915 06009KT 9999 BKN040 TEMPO 1912/1915 4000 SHSN BKN012 RMK MIL

Säähavainnot ja -ennusteet yli 4000 lentoasemalta (METAR- ja TAF-raportit).

Käytössä olevat sääasemat on merkitty karttaan keltaisilla ja punaisilla pisteillä.

Aseta hiiri pisteen päälle nähdäksesi sääaseman nimen.

Klikkaa sitten nähdäksesi säähavainnot ja -ennusteet.

Kartan vaihtaminen: klikkaa mustalla rastilla varustettuja vihreitä pisteitä, niin voit zoomata sisään; viivalla varustettua vihreää pistettä, niin voit zoomata ulos tai vihreitä nuolia, niin pääset viereisille kartoille.


METAR-TAF: